FNGI

Details ICAO FNGI (VPE)
Name NGIVA
Region Angola
Timezone Africa/Luanda (UTC+1.0)
Plans Departing 8
Arriving 7
Stats Elevation 3,566 ft / 1,087 m (AMSL)
Location -17.043465° 15.683824°
Runways 1
Magnetic Variation 7.251° W
Sunrise 2017-12-12 04:18:33 UTC / 2017-12-12 05:18:33 Local
Sunset 2017-12-12 17:26:16 UTC / 2017-12-12 18:26:16 Local
Advertisement - Login to hide

Runways

ID Width Length Bearing (true) Bearing (mag) Surface Threshold Offset Overrun Length
13 95 ft / 29 m 10,640 ft / 3,243 m 115.00° 122.25° Asphalt 0 ft / 0 m 200 ft / 61 m
31 95 ft / 29 m 10,640 ft / 3,243 m 294.99° 302.24° Asphalt 0 ft / 0 m 200 ft / 61 m

Map

Weather


0- 5 10 15 20 25 30 35+ Temperature / ° C

Clouds and Precipitation
Forecast for 2017-12-13 00:00 UTC. Updated 29 minutes ago

Ground ~20,000 ft ~40,000 ft Winds

METAR

Not found

TAF

TAF FNGI 121100Z 1212/1224 03005KT 9999 FEW020 TEMPO 1214/1218 18005KT SCT023 TEMPO 1220/1224 BKN040

Frequencies

Tower 118.70 MHz AFIS
Warning: Do not use this data for real-world aviation or navigation. No guarantee of current accuracy is given.